Time;durP1;ratioP1;P1;durP2;ratioP2;P2;SDS_P1;SDS_P2;PMS_P1;PMS_P2;Temp;Humidity;BMP_temperature;BMP_pressure;BME280_temperature;BME280_humidity;BME280_pressure;Samples;Min_cycle;Max_cycle;Signal;HPM_P1;HPM_P2
2022/01/09 00:01:35;;;;;;;9.38;6.88;;;5.00;99.90;;;;;;5083478;27;37326;-66
2022/01/09 00:04:02;;;;;;;9.88;7.18;;;5.10;99.90;;;;;;5082916;28;37511;-66
2022/01/09 00:06:30;;;;;;;9.48;7.25;;;5.10;99.90;;;;;;5081905;27;37099;-66
2022/01/09 00:08:57;;;;;;;10.93;7.55;;;5.20;99.90;;;;;;5083342;27;37394;-66
2022/01/09 00:11:26;;;;;;;12.02;7.32;;;5.10;99.90;;;;;;5083674;27;36327;-66
2022/01/09 00:13:54;;;;;;;11.23;8.25;;;5.20;99.90;;;;;;5082429;27;38914;-66
2022/01/09 00:16:21;;;;;;;10.88;8.27;;;5.20;99.90;;;;;;5083139;27;37237;-66
2022/01/09 00:18:51;;;;;;;9.05;6.82;;;5.20;99.90;;;;;;5082658;28;37788;-66
2022/01/09 00:21:19;;;;;;;10.80;7.35;;;5.20;99.90;;;;;;5082974;28;35293;-66
2022/01/09 00:23:46;;;;;;;11.05;7.75;;;5.20;99.90;;;;;;5082374;28;37649;-66
2022/01/09 00:26:13;;;;;;;10.18;8.02;;;5.10;99.90;;;;;;5083237;27;37970;-66
2022/01/09 00:28:41;;;;;;;10.98;8.35;;;5.10;99.90;;;;;;5082161;28;37382;-66
2022/01/09 00:31:08;;;;;;;11.60;8.63;;;5.10;99.90;;;;;;5082641;28;37403;-66
2022/01/09 00:33:35;;;;;;;11.35;8.60;;;5.10;99.90;;;;;;5079936;27;37541;-66
2022/01/09 00:36:05;;;;;;;12.88;8.25;;;5.10;99.90;;;;;;5082203;27;36279;-67
2022/01/09 00:38:32;;;;;;;9.52;7.45;;;5.10;99.90;;;;;;5081931;28;37408;-66
2022/01/09 00:40:59;;;;;;;12.38;9.48;;;5.10;99.90;;;;;;5082272;27;37163;-66
2022/01/09 00:43:27;;;;;;;12.07;8.75;;;5.10;99.90;;;;;;5081916;27;38400;-66
2022/01/09 00:45:54;;;;;;;12.02;8.82;;;5.10;99.90;;;;;;5082891;27;35996;-66
2022/01/09 00:48:21;;;;;;;12.70;8.77;;;5.10;99.90;;;;;;5082109;28;37068;-66
2022/01/09 00:50:49;;;;;;;11.23;8.93;;;5.10;99.90;;;;;;5081865;28;36685;-66
2022/01/09 00:53:17;;;;;;;12.63;9.32;;;5.10;99.90;;;;;;5081649;27;37118;-67
2022/01/09 00:55:45;;;;;;;11.77;8.75;;;5.10;99.90;;;;;;5082849;27;36146;-67
2022/01/09 00:58:12;;;;;;;12.95;8.73;;;5.10;99.90;;;;;;5081487;27;37363;-67
2022/01/09 01:00:40;;;;;;;14.70;9.35;;;5.10;99.90;;;;;;5082990;27;36948;-67
2022/01/09 01:03:07;;;;;;;12.80;8.93;;;5.10;99.90;;;;;;5082114;27;37702;-67
2022/01/09 01:05:35;;;;;;;11.63;8.93;;;5.10;99.90;;;;;;5081938;27;37982;-67
2022/01/09 01:08:02;;;;;;;12.82;9.02;;;5.00;99.90;;;;;;5081565;27;37947;-67
2022/01/09 01:10:31;;;;;;;12.32;9.10;;;5.00;99.90;;;;;;5082353;27;36819;-67
2022/01/09 01:12:58;;;;;;;12.15;9.00;;;5.10;99.90;;;;;;5081841;28;38238;-67
2022/01/09 01:15:25;;;;;;;15.13;9.80;;;5.10;99.90;;;;;;5082328;27;37145;-66
2022/01/09 01:17:53;;;;;;;13.50;9.55;;;5.10;99.90;;;;;;5080374;28;37134;-67
2022/01/09 01:20:22;;;;;;;14.32;9.88;;;5.10;99.90;;;;;;5081735;27;36644;-67
2022/01/09 01:22:51;;;;;;;15.68;9.50;;;5.10;99.90;;;;;;5081276;27;36382;-66
2022/01/09 01:25:19;;;;;;;12.27;9.00;;;5.10;99.90;;;;;;5080947;28;37627;-66
2022/01/09 01:27:48;;;;;;;11.80;8.48;;;5.10;99.90;;;;;;5082501;27;36928;-66
2022/01/09 01:30:16;;;;;;;13.30;9.10;;;5.10;99.90;;;;;;5081768;27;36515;-66
2022/01/09 01:32:43;;;;;;;12.65;9.27;;;5.20;99.90;;;;;;5081693;27;37236;-66
2022/01/09 01:35:13;;;;;;;15.38;9.20;;;5.20;99.90;;;;;;5082259;28;37493;-66
2022/01/09 01:37:42;;;;;;;12.10;8.73;;;5.20;99.90;;;;;;5081321;27;37013;-66
2022/01/09 01:40:13;;;;;;;10.45;7.95;;;5.20;99.90;;;;;;5081349;27;36280;-66
2022/01/09 01:42:40;;;;;;;14.75;8.23;;;5.20;99.90;;;;;;5081430;27;36521;-67
2022/01/09 01:45:11;;;;;;;11.38;8.32;;;5.30;99.90;;;;;;5082081;27;37225;-67
2022/01/09 01:47:39;;;;;;;12.18;8.50;;;5.30;99.90;;;;;;5081271;27;37171;-67
2022/01/09 01:50:09;;;;;;;13.05;9.20;;;5.30;99.90;;;;;;5081678;28;37069;-67
2022/01/09 01:52:41;;;;;;;12.30;8.43;;;5.30;99.90;;;;;;5081342;27;37313;-66
2022/01/09 01:55:10;;;;;;;11.90;9.40;;;5.30;99.90;;;;;;5081579;27;37482;-67
2022/01/09 01:57:40;;;;;;;13.55;8.63;;;5.30;99.90;;;;;;5081658;28;37064;-67
2022/01/09 02:00:12;;;;;;;11.43;8.85;;;5.30;99.90;;;;;;5081466;27;36447;-66
2022/01/09 02:02:39;;;;;;;12.15;8.85;;;5.30;99.90;;;;;;5081214;27;37703;-67
2022/01/09 02:05:08;;;;;;;11.63;8.88;;;5.30;99.90;;;;;;5079934;27;37768;-66
2022/01/09 02:07:37;;;;;;;11.52;8.93;;;5.30;99.90;;;;;;5081016;27;36311;-67
2022/01/09 02:10:08;;;;;;;13.23;9.43;;;5.30;99.90;;;;;;5081199;27;37213;-66
2022/01/09 02:12:37;;;;;;;13.85;9.93;;;5.30;99.90;;;;;;5080330;27;37900;-66
2022/01/09 02:15:27;;;;;;;13.02;9.40;;;5.40;99.90;;;;;;5081808;28;37275;-66
2022/01/09 02:17:55;;;;;;;12.13;9.75;;;5.40;99.90;;;;;;5080510;27;37031;-66
2022/01/09 02:20:24;;;;;;;13.48;9.60;;;5.40;99.90;;;;;;5081261;27;36401;-66
2022/01/09 02:22:51;;;;;;;12.05;9.18;;;5.40;99.90;;;;;;5080495;28;37712;-66
2022/01/09 02:25:19;;;;;;;12.15;9.25;;;5.40;99.90;;;;;;5081110;28;37375;-66
2022/01/09 02:27:46;;;;;;;12.95;9.52;;;5.40;99.90;;;;;;5080479;28;37249;-66
2022/01/09 02:30:14;;;;;;;11.05;8.40;;;5.50;99.90;;;;;;5080946;27;36992;-66
2022/01/09 02:32:41;;;;;;;13.30;9.48;;;5.50;99.90;;;;;;5080462;28;36757;-66
2022/01/09 02:35:09;;;;;;;11.73;8.63;;;5.50;99.90;;;;;;5081228;28;36046;-67
2022/01/09 02:37:38;;;;;;;12.32;8.43;;;5.60;99.90;;;;;;5080101;27;37852;-66
2022/01/09 02:40:06;;;;;;;12.40;9.23;;;5.60;99.90;;;;;;5079728;27;36801;-66
2022/01/09 02:42:34;;;;;;;15.43;8.80;;;5.60;99.90;;;;;;5080938;27;36321;-66
2022/01/09 02:45:03;;;;;;;16.08;8.50;;;5.70;99.90;;;;;;5080170;28;38610;-67
2022/01/09 02:47:33;;;;;;;12.10;7.63;;;5.70;99.90;;;;;;5079976;28;37983;-66
2022/01/09 02:50:10;;;;;;;13.35;7.03;;;5.70;99.90;;;;;;5079991;27;37194;-66
2022/01/09 02:52:50;;;;;;;14.07;7.68;;;5.80;99.90;;;;;;5081077;28;36656;-67
2022/01/09 02:55:18;;;;;;;16.05;7.07;;;5.70;99.90;;;;;;5080874;28;35973;-66
2022/01/09 02:57:48;;;;;;;13.95;6.70;;;5.80;99.90;;;;;;5080647;27;37102;-67
2022/01/09 03:00:17;;;;;;;13.43;6.38;;;5.90;99.90;;;;;;5079843;28;36478;-67
2022/01/09 03:02:45;;;;;;;12.57;7.07;;;5.90;99.90;;;;;;5080371;27;37535;-66
2022/01/09 03:05:13;;;;;;;17.05;6.38;;;5.90;99.90;;;;;;5080326;27;36386;-66
2022/01/09 03:07:43;;;;;;;15.55;6.40;;;5.90;99.90;;;;;;5080637;27;35518;-67
2022/01/09 03:10:12;;;;;;;16.67;7.00;;;5.90;99.90;;;;;;5079598;28;37178;-67
2022/01/09 03:12:40;;;;;;;15.82;4.93;;;6.00;99.90;;;;;;5080207;28;39411;-67
2022/01/09 03:15:08;;;;;;;19.67;5.15;;;6.00;99.90;;;;;;5080407;27;38037;-66
2022/01/09 03:17:36;;;;;;;22.02;4.68;;;6.00;99.90;;;;;;5079544;28;38072;-67
2022/01/09 03:20:06;;;;;;;17.20;4.05;;;6.00;99.90;;;;;;5080899;27;37795;-67
2022/01/09 03:22:33;;;;;;;21.75;4.13;;;6.10;99.90;;;;;;5079659;28;38302;-67
2022/01/09 03:25:02;;;;;;;22.83;4.47;;;6.10;99.90;;;;;;5079827;27;37084;-67
2022/01/09 03:27:30;;;;;;;20.52;3.80;;;6.10;99.90;;;;;;5078883;27;37579;-67
2022/01/09 03:29:57;;;;;;;25.95;3.42;;;6.10;99.90;;;;;;5079864;28;35549;-66
2022/01/09 03:32:25;;;;;;;23.98;4.63;;;6.20;99.90;;;;;;5079212;28;38419;-67
2022/01/09 03:34:52;;;;;;;31.27;5.28;;;6.20;99.90;;;;;;5079902;28;37410;-66
2022/01/09 03:37:20;;;;;;;37.13;4.78;;;6.20;99.90;;;;;;5080662;27;38069;-66
2022/01/09 03:39:47;;;;;;;33.42;6.38;;;6.30;99.90;;;;;;5081659;27;35547;-67
2022/01/09 03:42:16;;;;;;;55.72;6.40;;;6.30;99.90;;;;;;5082952;28;38052;-66
2022/01/09 03:44:43;;;;;;;48.25;8.00;;;6.30;99.90;;;;;;5083530;28;37561;-67
2022/01/09 03:47:11;;;;;;;42.78;6.97;;;6.40;99.90;;;;;;5082812;27;37937;-66
2022/01/09 03:49:38;;;;;;;43.03;5.90;;;6.40;99.90;;;;;;5083844;27;35583;-67
2022/01/09 03:52:06;;;;;;;40.53;7.47;;;6.40;99.90;;;;;;5083081;27;37524;-67
2022/01/09 03:54:36;;;;;;;25.40;5.25;;;6.50;99.90;;;;;;5083471;27;37989;-67
2022/01/09 03:57:04;;;;;;;39.28;6.05;;;6.50;99.90;;;;;;5082577;28;36149;-66
2022/01/09 03:59:32;;;;;;;40.03;6.60;;;6.50;99.90;;;;;;5083175;27;36711;-66
2022/01/09 04:02:00;;;;;;;43.42;5.32;;;6.50;99.90;;;;;;5082775;27;38994;-66
2022/01/09 04:04:28;;;;;;;35.13;5.43;;;6.50;99.90;;;;;;5083553;28;38098;-66
2022/01/09 04:06:55;;;;;;;38.20;5.30;;;6.50;99.90;;;;;;5082907;27;36908;-66
2022/01/09 04:09:29;;;;;;;39.90;5.32;;;6.50;99.90;;;;;;5083248;28;36411;-66
2022/01/09 04:12:02;;;;;;;41.40;5.75;;;6.60;99.90;;;;;;5082025;27;37642;-66
2022/01/09 04:14:30;;;;;;;32.25;5.90;;;6.50;99.90;;;;;;5082859;27;37231;-66
2022/01/09 04:17:00;;;;;;;40.20;5.68;;;6.50;99.90;;;;;;5082436;27;36723;-66
2022/01/09 04:19:28;;;;;;;42.65;4.63;;;6.60;99.90;;;;;;5083166;27;36529;-66
2022/01/09 04:21:55;;;;;;;36.25;4.32;;;6.60;99.90;;;;;;5082376;28;38592;-66
2022/01/09 04:24:22;;;;;;;36.72;5.22;;;6.60;99.90;;;;;;5082374;27;35933;-66
2022/01/09 04:26:50;;;;;;;32.10;5.20;;;6.50;99.90;;;;;;5082411;27;36916;-66
2022/01/09 04:29:17;;;;;;;31.45;4.57;;;6.60;99.90;;;;;;5082876;27;35480;-66
2022/01/09 04:31:44;;;;;;;35.92;4.80;;;6.60;99.90;;;;;;5082423;28;37614;-66
2022/01/09 04:34:13;;;;;;;32.55;4.53;;;6.60;99.90;;;;;;5083303;28;38576;-66
2022/01/09 04:36:40;;;;;;;29.42;4.55;;;6.50;99.90;;;;;;5083119;27;37620;-66
2022/01/09 04:39:08;;;;;;;33.00;4.63;;;6.50;99.90;;;;;;5082760;27;36455;-66
2022/01/09 04:41:35;;;;;;;42.45;5.82;;;6.50;99.90;;;;;;5083004;27;37672;-66
2022/01/09 04:44:02;;;;;;;34.35;4.18;;;6.50;99.90;;;;;;5082887;28;38608;-66
2022/01/09 04:46:38;;;;;;;38.25;5.30;;;6.50;99.90;;;;;;5083509;27;36896;-66
2022/01/09 04:49:06;;;;;;;35.80;4.38;;;6.50;99.90;;;;;;5082646;27;36258;-66
2022/01/09 04:51:35;;;;;;;32.78;5.25;;;6.50;99.90;;;;;;5082711;28;37290;-66
2022/01/09 04:54:03;;;;;;;36.22;4.40;;;6.50;99.90;;;;;;5081614;28;36282;-66
2022/01/09 04:56:31;;;;;;;32.75;5.07;;;6.50;99.90;;;;;;5082340;27;37073;-66
2022/01/09 04:58:58;;;;;;;37.15;5.22;;;6.60;99.90;;;;;;5082765;27;35357;-66
2022/01/09 05:01:26;;;;;;;42.70;6.65;;;6.50;99.90;;;;;;5081515;27;38603;-67
2022/01/09 05:03:53;;;;;;;22.83;3.42;;;6.50;99.90;;;;;;5081724;28;37283;-66
2022/01/09 05:06:21;;;;;;;34.83;5.40;;;6.50;99.90;;;;;;5081494;28;37794;-66
2022/01/09 05:08:50;;;;;;;33.33;5.65;;;6.50;99.90;;;;;;5080667;28;37679;-66
2022/01/09 05:11:17;;;;;;;36.65;5.40;;;6.50;99.90;;;;;;5082029;28;37915;-66
2022/01/09 05:13:44;;;;;;;27.92;4.07;;;6.50;99.90;;;;;;5080998;28;37697;-66
2022/01/09 05:16:11;;;;;;;31.73;4.82;;;6.50;99.90;;;;;;5082016;27;36779;-66
2022/01/09 05:18:51;;;;;;;27.48;4.32;;;6.50;99.90;;;;;;5081561;27;36419;-66
2022/01/09 05:21:18;;;;;;;30.90;4.93;;;6.50;99.90;;;;;;5080888;28;36477;-66
2022/01/09 05:23:46;;;;;;;27.70;4.25;;;6.50;99.90;;;;;;5081044;27;37469;-66
2022/01/09 05:26:14;;;;;;;30.17;4.30;;;6.50;99.90;;;;;;5081264;27;37902;-66
2022/01/09 05:28:42;;;;;;;26.45;4.95;;;6.50;99.90;;;;;;5081617;27;37326;-66
2022/01/09 05:31:09;;;;;;;38.38;5.03;;;6.50;99.90;;;;;;5081832;27;38014;-66
2022/01/09 05:33:37;;;;;;;28.00;4.30;;;6.40;99.90;;;;;;5080957;27;37321;-66
2022/01/09 05:36:05;;;;;;;29.08;4.05;;;6.40;99.90;;;;;;5081420;27;37391;-66
2022/01/09 05:38:32;;;;;;;22.45;3.35;;;6.40;99.90;;;;;;5081318;27;36688;-66
2022/01/09 05:40:59;;;;;;;26.45;4.57;;;6.40;99.90;;;;;;5081933;27;36256;-66
2022/01/09 05:43:28;;;;;;;36.30;6.03;;;6.40;99.90;;;;;;5081256;27;38536;-66
2022/01/09 05:45:55;;;;;;;25.00;4.03;;;6.40;99.90;;;;;;5081365;27;38012;-66
2022/01/09 05:48:23;;;;;;;25.50;3.85;;;6.40;99.90;;;;;;5080552;27;36437;-66
2022/01/09 05:50:50;;;;;;;40.45;6.10;;;6.40;99.90;;;;;;5081371;27;37491;-66
2022/01/09 05:53:17;;;;;;;28.63;4.13;;;6.40;99.90;;;;;;5080892;27;37130;-66
2022/01/09 05:55:45;;;;;;;37.90;4.85;;;6.40;99.90;;;;;;5082228;27;35885;-66
2022/01/09 05:58:12;;;;;;;19.27;4.65;;;6.40;99.90;;;;;;5080418;28;38655;-66
2022/01/09 06:00:41;;;;;;;25.40;4.18;;;6.30;99.90;;;;;;5081142;28;38843;-66
2022/01/09 06:03:08;;;;;;;24.80;5.30;;;6.30;99.90;;;;;;5079235;27;38517;-66
2022/01/09 06:05:36;;;;;;;26.92;3.55;;;6.30;99.90;;;;;;5081475;27;37368;-66
2022/01/09 06:08:03;;;;;;;30.45;4.00;;;6.30;99.90;;;;;;5081434;27;37259;-66
2022/01/09 06:10:31;;;;;;;21.80;3.83;;;6.30;99.90;;;;;;5081724;27;37291;-66
2022/01/09 06:12:58;;;;;;;29.15;4.68;;;6.30;99.90;;;;;;5081008;28;37144;-66
2022/01/09 06:15:26;;;;;;;28.08;4.18;;;6.30;99.90;;;;;;5081942;28;37551;-66
2022/01/09 06:17:54;;;;;;;21.55;3.53;;;6.20;99.90;;;;;;5079582;27;36866;-66
2022/01/09 06:20:22;;;;;;;27.08;3.65;;;6.20;99.90;;;;;;5081222;27;37520;-66
2022/01/09 06:22:49;;;;;;;17.70;2.75;;;6.20;99.90;;;;;;5081022;27;37025;-66
2022/01/09 06:25:16;;;;;;;20.30;3.65;;;6.20;99.90;;;;;;5081258;28;36918;-66
2022/01/09 06:27:44;;;;;;;25.17;4.50;;;6.20;99.90;;;;;;5081019;27;37576;-66
2022/01/09 06:30:12;;;;;;;28.25;5.65;;;6.20;99.90;;;;;;5080685;27;36519;-66
2022/01/09 06:32:40;;;;;;;27.02;3.55;;;6.20;99.90;;;;;;5080321;27;37538;-66
2022/01/09 06:35:10;;;;;;;21.58;2.90;;;6.20;99.90;;;;;;5081106;27;37507;-66
2022/01/09 06:37:37;;;;;;;27.05;4.22;;;6.20;99.90;;;;;;5080330;28;35442;-66
2022/01/09 06:40:06;;;;;;;22.00;3.60;;;6.20;99.90;;;;;;5080866;28;38169;-66
2022/01/09 06:42:34;;;;;;;26.98;4.00;;;6.20;99.90;;;;;;5079932;28;35063;-66
2022/01/09 06:45:01;;;;;;;20.48;3.47;;;6.20;99.90;;;;;;5081003;27;36905;-67
2022/01/09 06:47:28;;;;;;;27.38;4.38;;;6.20;99.90;;;;;;5079220;27;36414;-66
2022/01/09 06:49:56;;;;;;;29.38;3.08;;;6.10;99.90;;;;;;5081246;28;38283;-66
2022/01/09 06:52:25;;;;;;;21.48;2.78;;;6.10;99.90;;;;;;5080361;27;38385;-66
2022/01/09 06:54:52;;;;;;;20.83;3.22;;;6.10;99.90;;;;;;5080768;27;38076;-66
2022/01/09 06:57:19;;;;;;;23.45;2.78;;;6.10;99.90;;;;;;5081026;28;36573;-66
2022/01/09 06:59:47;;;;;;;22.02;3.05;;;6.10;99.90;;;;;;5080578;28;37385;-66
2022/01/09 07:02:14;;;;;;;28.08;3.83;;;6.10;99.90;;;;;;5080215;27;37173;-65
2022/01/09 07:04:41;;;;;;;20.60;2.95;;;6.10;99.90;;;;;;5080623;28;36585;-66
2022/01/09 07:07:09;;;;;;;18.92;2.92;;;6.10;99.90;;;;;;5080256;28;36591;-66
2022/01/09 07:09:38;;;;;;;23.02;3.13;;;6.10;99.90;;;;;;5079896;28;37538;-65
2022/01/09 07:12:07;;;;;;;22.17;3.85;;;6.10;99.90;;;;;;5079722;28;37701;-65
2022/01/09 07:14:34;;;;;;;17.55;3.33;;;6.00;99.90;;;;;;5080672;27;38210;-65
2022/01/09 07:17:02;;;;;;;14.48;3.22;;;6.10;99.90;;;;;;5083733;27;36981;-66
2022/01/09 07:19:29;;;;;;;28.88;4.53;;;6.10;99.90;;;;;;5084519;27;37372;-66
2022/01/09 07:21:57;;;;;;;18.08;3.05;;;6.10;99.90;;;;;;5083970;27;37263;-66
2022/01/09 07:24:24;;;;;;;22.50;3.25;;;6.10;99.90;;;;;;5084115;27;37113;-66
2022/01/09 07:26:53;;;;;;;18.17;3.10;;;6.10;99.90;;;;;;5083963;27;36217;-66
2022/01/09 07:29:20;;;;;;;15.60;2.65;;;6.10;99.90;;;;;;5084002;27;37513;-66
2022/01/09 07:31:47;;;;;;;23.60;4.00;;;6.10;99.90;;;;;;5083651;28;37208;-65
2022/01/09 07:34:15;;;;;;;17.65;3.00;;;6.10;99.90;;;;;;5083681;27;38052;-66
2022/01/09 07:36:42;;;;;;;19.85;2.92;;;6.10;99.90;;;;;;5083076;28;35389;-66
2022/01/09 07:39:09;;;;;;;27.15;4.00;;;6.00;99.90;;;;;;5083543;27;38105;-66
2022/01/09 07:41:37;;;;;;;15.68;2.50;;;6.00;99.90;;;;;;5084042;28;37154;-66
2022/01/09 07:44:06;;;;;;;22.10;2.65;;;6.00;99.90;;;;;;5083122;28;37019;-65
2022/01/09 07:46:34;;;;;;;17.45;2.80;;;6.00;99.90;;;;;;5083607;28;35225;-65
2022/01/09 07:49:01;;;;;;;16.52;2.40;;;5.90;99.90;;;;;;5083190;27;37728;-65
2022/01/09 07:51:29;;;;;;;20.45;2.55;;;5.90;99.90;;;;;;5082850;27;37213;-65
2022/01/09 07:53:56;;;;;;;22.27;3.05;;;6.00;99.90;;;;;;5082937;28;35916;-65
2022/01/09 07:56:23;;;;;;;18.25;2.55;;;5.90;99.90;;;;;;5083517;28;36500;-65
2022/01/09 07:58:51;;;;;;;19.45;2.78;;;5.90;99.90;;;;;;5082523;28;38801;-65
2022/01/09 08:01:19;;;;;;;18.27;2.38;;;5.90;99.90;;;;;;5084311;27;36230;-65
2022/01/09 08:03:47;;;;;;;14.38;2.38;;;5.90;99.90;;;;;;5082725;27;37279;-65
2022/01/09 08:06:15;;;;;;;21.80;3.30;;;5.90;99.90;;;;;;5082769;27;36715;-65
2022/01/09 08:08:42;;;;;;;20.55;2.65;;;5.90;99.90;;;;;;5082768;27;37535;-65
2022/01/09 08:11:10;;;;;;;17.25;3.15;;;5.80;99.90;;;;;;5083071;28;37181;-66
2022/01/09 08:13:37;;;;;;;18.50;3.47;;;5.90;99.90;;;;;;5081846;28;36775;-66
2022/01/09 08:16:05;;;;;;;16.70;2.47;;;5.90;99.90;;;;;;5083336;27;36295;-65
2022/01/09 08:18:33;;;;;;;9.60;2.00;;;5.90;99.90;;;;;;5081795;27;37636;-65
2022/01/09 08:21:01;;;;;;;25.38;2.95;;;5.90;99.90;;;;;;5082842;27;36220;-65
2022/01/09 08:23:28;;;;;;;14.50;2.20;;;5.90;99.90;;;;;;5082809;27;37068;-66
2022/01/09 08:25:55;;;;;;;15.57;3.63;;;6.00;99.90;;;;;;5083285;27;36279;-65
2022/01/09 08:28:23;;;;;;;16.73;2.60;;;5.80;99.90;;;;;;5081983;28;37460;-65
2022/01/09 08:30:50;;;;;;;15.40;3.40;;;5.80;99.90;;;;;;5083057;27;37142;-65
2022/01/09 08:33:23;;;;;;;18.40;2.50;;;5.90;99.90;;;;;;5082531;28;37184;-66
2022/01/09 08:35:55;;;;;;;12.20;2.65;;;5.90;99.90;;;;;;5084022;27;36339;-65
2022/01/09 08:38:22;;;;;;;12.60;2.53;;;5.90;99.90;;;;;;5082998;27;36314;-65
2022/01/09 08:40:49;;;;;;;17.45;3.13;;;5.90;99.90;;;;;;5083099;27;38099;-65
2022/01/09 08:43:17;;;;;;;13.52;2.15;;;5.90;99.90;;;;;;5082015;27;37766;-65
2022/01/09 08:45:44;;;;;;;15.85;2.15;;;5.90;99.90;;;;;;5082639;28;36781;-65
2022/01/09 08:48:11;;;;;;;13.93;2.83;;;5.90;99.90;;;;;;5081211;27;37362;-65
2022/01/09 08:50:39;;;;;;;13.02;1.70;;;5.90;99.90;;;;;;5082700;27;37406;-65
2022/01/09 08:53:07;;;;;;;18.40;3.05;;;5.90;99.90;;;;;;5082231;27;37129;-65
2022/01/09 08:55:35;;;;;;;21.67;3.20;;;5.90;99.90;;;;;;5082586;28;36757;-65
2022/01/09 08:58:02;;;;;;;15.32;2.30;;;6.00;99.90;;;;;;5081842;27;38653;-65
2022/01/09 09:00:30;;;;;;;19.98;3.78;;;6.00;99.90;;;;;;5082661;27;36178;-66
2022/01/09 09:02:57;;;;;;;24.45;3.13;;;6.00;99.90;;;;;;5082286;27;36646;-65
2022/01/09 09:05:24;;;;;;;14.35;3.00;;;6.10;99.90;;;;;;5082155;28;37314;-66
2022/01/09 09:07:52;;;;;;;18.70;2.78;;;6.10;99.90;;;;;;5082110;27;36327;-65
2022/01/09 09:10:20;;;;;;;12.93;2.22;;;6.20;99.90;;;;;;5082228;27;37287;-65
2022/01/09 09:12:48;;;;;;;18.58;2.85;;;6.20;99.90;;;;;;5082140;27;37083;-65
2022/01/09 09:15:15;;;;;;;18.13;3.42;;;6.30;99.90;;;;;;5081447;28;37894;-65
2022/01/09 09:17:43;;;;;;;12.27;2.42;;;6.30;99.90;;;;;;5081308;28;36384;-65
2022/01/09 09:20:10;;;;;;;20.33;2.42;;;6.30;99.90;;;;;;5082427;28;38021;-65
2022/01/09 09:22:39;;;;;;;14.30;1.90;;;6.30;99.90;;;;;;5081050;27;38024;-65
2022/01/09 09:25:08;;;;;;;9.07;1.75;;;6.30;99.80;;;;;;5082212;27;36115;-65
2022/01/09 09:27:36;;;;;;;16.42;4.07;;;6.40;99.80;;;;;;5082376;27;37816;-65
2022/01/09 09:30:06;;;;;;;13.52;2.13;;;6.40;99.80;;;;;;5082256;27;37217;-65
2022/01/09 09:32:33;;;;;;;16.38;2.08;;;6.50;99.70;;;;;;5081885;27;36797;-65
2022/01/09 09:35:02;;;;;;;14.82;2.08;;;6.50;99.60;;;;;;5081979;27;36384;-65
2022/01/09 09:37:30;;;;;;;12.25;2.30;;;6.50;99.50;;;;;;5080862;27;37518;-65
2022/01/09 09:39:57;;;;;;;12.15;2.75;;;6.50;99.20;;;;;;5081383;27;38916;-66
2022/01/09 09:42:25;;;;;;;17.80;2.13;;;6.50;99.10;;;;;;5081804;27;35997;-65
2022/01/09 09:44:54;;;;;;;10.80;2.38;;;6.50;99.30;;;;;;5082246;27;38011;-65
2022/01/09 09:47:22;;;;;;;15.07;2.10;;;6.50;99.10;;;;;;5080883;27;38434;-65
2022/01/09 09:49:50;;;;;;;9.30;1.88;;;6.50;99.10;;;;;;5081193;28;38258;-65
2022/01/09 09:52:18;;;;;;;14.23;2.60;;;6.60;99.10;;;;;;5081617;27;37823;-65
2022/01/09 09:54:46;;;;;;;11.48;1.80;;;6.60;99.00;;;;;;5081837;27;37817;-65
2022/01/09 09:57:14;;;;;;;17.40;2.22;;;6.60;98.90;;;;;;5081655;27;38152;-65
2022/01/09 09:59:41;;;;;;;15.48;2.60;;;6.60;98.80;;;;;;5081862;27;37177;-65
2022/01/09 10:02:11;;;;;;;12.10;2.17;;;6.60;98.80;;;;;;5081435;28;37179;-65
2022/01/09 10:04:56;;;;;;;13.18;1.83;;;6.60;98.70;;;;;;5081588;28;36440;-65
2022/01/09 10:07:24;;;;;;;14.05;1.90;;;6.70;98.70;;;;;;5081481;27;37614;-65
2022/01/09 10:09:55;;;;;;;7.65;1.42;;;6.70;98.60;;;;;;5082108;27;39361;-65
2022/01/09 10:12:27;;;;;;;15.40;1.92;;;6.70;98.60;;;;;;5080711;28;35875;-65
2022/01/09 10:14:57;;;;;;;12.07;2.57;;;6.70;98.50;;;;;;5081699;27;36276;-65
2022/01/09 10:17:26;;;;;;;10.85;2.05;;;6.70;98.40;;;;;;5080472;28;39431;-65
2022/01/09 10:19:56;;;;;;;18.23;2.13;;;6.70;98.40;;;;;;5081389;27;37089;-65
2022/01/09 10:22:25;;;;;;;11.75;2.03;;;6.80;98.50;;;;;;5080579;27;37118;-65
2022/01/09 10:24:53;;;;;;;12.27;2.00;;;6.70;98.60;;;;;;5081521;28;35633;-65
2022/01/09 10:27:32;;;;;;;12.05;2.42;;;6.80;98.40;;;;;;5080329;27;37567;-65
2022/01/09 10:30:00;;;;;;;14.25;1.60;;;6.90;98.20;;;;;;5080806;28;38084;-65
2022/01/09 10:32:30;;;;;;;14.15;2.45;;;6.90;98.40;;;;;;5081350;27;37015;-65
2022/01/09 10:35:18;;;;;;;16.30;3.03;;;6.90;98.20;;;;;;5080269;27;37474;-65
2022/01/09 10:37:47;;;;;;;8.32;2.00;;;7.00;98.10;;;;;;5080981;28;38709;-65
2022/01/09 10:40:22;;;;;;;8.93;1.33;;;7.00;98.10;;;;;;5081388;27;37893;-65
2022/01/09 10:43:03;;;;;;;11.13;2.03;;;7.00;98.00;;;;;;5081303;27;35903;-65
2022/01/09 10:45:31;;;;;;;11.65;2.25;;;7.10;98.00;;;;;;5080589;27;37453;-65
2022/01/09 10:48:08;;;;;;;13.57;1.70;;;7.10;97.90;;;;;;5081195;27;38947;-64
2022/01/09 10:50:39;;;;;;;17.08;2.78;;;7.20;97.80;;;;;;5084689;27;37350;-65
2022/01/09 10:53:15;;;;;;;15.73;2.45;;;7.20;97.90;;;;;;5084369;27;35876;-64
2022/01/09 10:55:43;;;;;;;10.23;2.00;;;7.20;97.80;;;;;;5084469;28;37015;-64
2022/01/09 10:58:22;;;;;;;18.63;2.53;;;7.20;97.80;;;;;;5084592;28;37398;-64
2022/01/09 11:01:08;;;;;;;15.70;2.53;;;7.10;97.80;;;;;;5084491;27;37215;-64
2022/01/09 11:03:38;;;;;;;11.32;1.90;;;7.20;97.80;;;;;;5083640;27;36874;-64
2022/01/09 11:06:07;;;;;;;19.77;2.78;;;7.20;97.80;;;;;;5084120;27;36345;-64
2022/01/09 11:08:36;;;;;;;13.45;2.03;;;7.20;97.60;;;;;;5083756;27;38197;-64
2022/01/09 11:11:07;;;;;;;15.35;1.90;;;7.20;97.60;;;;;;5084478;28;37307;-65
2022/01/09 11:13:37;;;;;;;10.10;1.80;;;7.20;97.50;;;;;;5083535;27;37966;-64
2022/01/09 11:18:53;;;;;;;14.63;1.88;;;7.20;97.40;;;;;;5083990;28;39186;-64
2022/01/09 11:21:20;;;;;;;11.48;1.60;;;7.10;97.50;;;;;;5083929;28;38462;-64
2022/01/09 11:24:00;;;;;;;10.40;1.80;;;7.10;97.60;;;;;;5083401;27;37982;-64
2022/01/09 11:26:37;;;;;;;13.50;2.30;;;7.20;97.60;;;;;;5084338;27;35331;-64
2022/01/09 11:29:09;;;;;;;15.00;3.10;;;7.10;97.60;;;;;;5084019;28;36288;-64
2022/01/09 11:31:42;;;;;;;11.45;2.22;;;7.20;97.70;;;;;;5083418;27;36352;-64
2022/01/09 11:34:19;;;;;;;13.23;1.92;;;7.20;97.80;;;;;;5083077;27;37915;-64
2022/01/09 11:36:59;;;;;;;13.98;2.17;;;7.30;97.70;;;;;;5083392;27;37128;-63
2022/01/09 11:39:35;;;;;;;13.00;1.83;;;7.40;97.80;;;;;;5084570;27;38155;-64
2022/01/09 11:42:08;;;;;;;19.45;2.55;;;7.50;97.90;;;;;;5083527;27;37388;-64
2022/01/09 11:44:44;;;;;;;13.88;2.53;;;7.80;97.90;;;;;;5084030;27;36396;-64
2022/01/09 11:47:11;;;;;;;10.43;2.05;;;8.00;97.60;;;;;;5082830;27;37464;-64
2022/01/09 11:50:07;;;;;;;18.55;2.60;;;8.20;97.30;;;;;;5083901;28;37547;-64
2022/01/09 11:52:59;;;;;;;12.55;2.47;;;8.40;96.80;;;;;;5082971;27;37746;-64
2022/01/09 11:55:36;;;;;;;14.10;2.10;;;8.40;96.40;;;;;;5083462;27;35852;-64
2022/01/09 11:58:08;;;;;;;16.88;2.50;;;8.50;96.40;;;;;;5083002;28;36664;-64
2022/01/09 12:00:38;;;;;;;14.32;2.40;;;8.50;96.20;;;;;;5082525;27;36534;-64
2022/01/09 12:03:35;;;;;;;13.40;1.83;;;8.40;96.10;;;;;;5081976;28;37461;-63
2022/01/09 12:06:08;;;;;;;18.70;2.67;;;8.40;95.50;;;;;;5083728;28;36941;-63
2022/01/09 12:09:08;;;;;;;12.95;2.60;;;8.50;95.90;;;;;;5082170;28;37289;-63
2022/01/09 12:12:08;;;;;;;16.48;2.47;;;8.50;95.70;;;;;;5082946;27;37393;-63
2022/01/09 12:14:56;;;;;;;13.93;2.15;;;8.50;95.80;;;;;;5083063;27;38010;-63
2022/01/09 12:17:45;;;;;;;13.43;2.25;;;8.50;95.70;;;;;;5081275;28;37209;-63
2022/01/09 12:20:27;;;;;;;12.35;1.80;;;8.50;95.60;;;;;;5077774;27;36654;-63
2022/01/09 12:23:05;;;;;;;11.98;1.65;;;8.40;95.40;;;;;;5082924;27;37747;-63
2022/01/09 12:25:52;;;;;;;11.05;2.25;;;8.30;95.00;;;;;;5082998;28;37394;-63
2022/01/09 12:28:38;;;;;;;10.05;1.95;;;8.30;95.30;;;;;;5082988;28;35866;-63
2022/01/09 12:31:06;;;;;;;13.43;2.45;;;8.30;95.60;;;;;;5082842;27;37782;-63
2022/01/09 12:33:52;;;;;;;19.23;2.45;;;8.30;95.50;;;;;;5082434;27;38831;-63
2022/01/09 12:36:26;;;;;;;19.65;3.30;;;8.30;95.60;;;;;;5083071;27;37172;-63
2022/01/09 12:38:59;;;;;;;12.63;2.17;;;8.30;95.60;;;;;;5082036;27;39542;-63
2022/01/09 12:41:32;;;;;;;11.70;1.63;;;8.30;95.50;;;;;;5082430;27;36577;-63
2022/01/09 12:44:01;;;;;;;13.02;1.90;;;8.30;95.40;;;;;;5082441;28;38335;-63
2022/01/09 12:46:33;;;;;;;12.82;2.00;;;8.30;95.80;;;;;;5082529;27;37647;-63
2022/01/09 12:49:02;;;;;;;12.82;1.88;;;8.30;95.80;;;;;;5081218;27;36780;-63
2022/01/09 12:51:30;;;;;;;9.73;1.90;;;8.30;95.60;;;;;;5082301;27;36663;-63
2022/01/09 12:54:02;;;;;;;12.57;2.20;;;8.20;95.20;;;;;;5082427;28;37540;-63
2022/01/09 12:56:30;;;;;;;10.13;1.98;;;8.20;95.30;;;;;;5082151;27;37326;-63
2022/01/09 12:58:59;;;;;;;15.43;2.42;;;8.10;95.30;;;;;;5081728;27;37609;-63
2022/01/09 13:01:28;;;;;;;15.38;3.30;;;8.10;95.50;;;;;;5082369;28;37227;-63
2022/01/09 13:03:58;;;;;;;12.00;2.38;;;8.10;95.50;;;;;;5082154;27;37374;-62